createdAt,value
2017-12-15T00:00:00.993Z,934.02
2017-12-15T00:01:00.988Z,934.06
2017-12-15T00:02:00.983Z,934.09
2017-12-15T00:03:00.973Z,934.12
2017-12-15T00:04:00.972Z,934.11
2017-12-15T00:05:00.956Z,934.08
2017-12-15T00:06:00.962Z,934.12
2017-12-15T00:07:00.936Z,934.13
2017-12-15T00:08:00.950Z,934.14
2017-12-15T00:09:00.948Z,934.15
2017-12-15T00:10:00.940Z,934.16
2017-12-15T00:11:00.920Z,934.18
2017-12-15T00:12:00.909Z,934.23
2017-12-15T00:13:00.909Z,934.25
2017-12-15T00:14:00.899Z,934.25
2017-12-15T00:15:00.893Z,934.28
2017-12-15T00:16:00.907Z,934.28
2017-12-15T00:17:00.897Z,934.27
2017-12-15T00:18:00.897Z,934.29
2017-12-15T00:19:00.890Z,934.27
2017-12-15T00:20:00.873Z,934.29
2017-12-15T00:21:00.866Z,934.27
2017-12-15T00:22:00.860Z,934.32
2017-12-15T00:23:00.871Z,934.36
2017-12-15T00:24:00.863Z,934.38
2017-12-15T00:25:00.843Z,934.38
2017-12-15T00:26:00.853Z,934.41
2017-12-15T00:27:00.833Z,934.44
2017-12-15T00:28:00.828Z,934.45
2017-12-15T00:29:00.836Z,934.42
2017-12-15T00:30:00.817Z,934.47
2017-12-15T00:31:00.824Z,934.48
2017-12-15T00:32:00.819Z,934.47
2017-12-15T00:33:00.813Z,934.51
2017-12-15T00:34:00.808Z,934.48
2017-12-15T00:35:00.803Z,934.48
2017-12-15T00:36:00.783Z,934.49
2017-12-15T00:37:00.794Z,934.46
2017-12-15T00:38:00.782Z,934.45
2017-12-15T00:39:00.780Z,934.50
2017-12-15T00:40:00.774Z,934.50
2017-12-15T00:41:00.769Z,934.49
2017-12-15T00:42:00.764Z,934.50
2017-12-15T00:43:00.757Z,934.51
2017-12-15T00:44:00.752Z,934.51
2017-12-15T00:45:00.751Z,934.49
2017-12-15T00:46:00.742Z,934.47
2017-12-15T00:47:00.736Z,934.47
2017-12-15T00:48:00.734Z,934.45
2017-12-15T00:49:00.725Z,934.47
2017-12-15T00:50:00.724Z,934.46
2017-12-15T00:51:00.718Z,934.49
2017-12-15T00:52:00.709Z,934.49
2017-12-15T00:53:00.708Z,934.47
2017-12-15T00:54:00.699Z,934.49
2017-12-15T00:55:00.698Z,934.50
2017-12-15T00:56:00.692Z,934.51
2017-12-15T00:57:00.684Z,934.54
2017-12-15T00:58:00.675Z,934.49
2017-12-15T00:59:00.675Z,934.53
2017-12-15T01:00:00.666Z,934.53
2017-12-15T01:01:00.665Z,934.53
2017-12-15T01:02:00.660Z,934.57
2017-12-15T01:03:00.654Z,934.60
2017-12-15T01:04:00.638Z,934.65
2017-12-15T01:05:00.627Z,934.69
2017-12-15T01:06:00.616Z,934.73
2017-12-15T01:07:00.610Z,934.71
2017-12-15T01:08:00.628Z,934.75
2017-12-15T01:09:00.622Z,934.75
2017-12-15T01:10:00.618Z,934.71
2017-12-15T01:11:00.611Z,934.70
2017-12-15T01:12:00.589Z,934.68
2017-12-15T01:13:00.592Z,934.73
2017-12-15T01:14:00.578Z,934.68
2017-12-15T01:15:00.571Z,934.72
2017-12-15T01:16:00.580Z,934.75
2017-12-15T01:17:00.575Z,934.80
2017-12-15T01:18:00.556Z,934.81
2017-12-15T01:19:00.550Z,934.83
2017-12-15T01:20:00.544Z,934.87
2017-12-15T01:21:00.553Z,934.88
2017-12-15T01:22:00.544Z,934.88
2017-12-15T01:23:00.543Z,934.92
2017-12-15T01:24:00.537Z,934.90
2017-12-15T01:25:00.531Z,934.95
2017-12-15T01:26:00.507Z,934.94
2017-12-15T01:27:00.501Z,934.95
2017-12-15T01:28:00.503Z,934.97
2017-12-15T01:29:00.494Z,935.01
2017-12-15T01:30:00.500Z,935.02
2017-12-15T01:31:00.482Z,935.00
2017-12-15T01:32:00.478Z,935.01
2017-12-15T01:33:00.473Z,935.00
2017-12-15T01:34:00.467Z,934.98
2017-12-15T01:35:00.464Z,934.95
2017-12-15T01:36:00.451Z,934.96
2017-12-15T01:37:00.464Z,934.92
2017-12-15T01:38:00.459Z,934.88
2017-12-15T01:39:00.454Z,934.87
2017-12-15T01:40:00.447Z,934.84
2017-12-15T01:41:00.428Z,934.82
2017-12-15T01:42:00.422Z,934.84
2017-12-15T01:43:00.411Z,934.81
2017-12-15T01:44:00.412Z,934.82
2017-12-15T01:45:00.416Z,934.81
2017-12-15T01:46:00.419Z,934.85
2017-12-15T01:47:00.393Z,934.88
2017-12-15T01:48:00.389Z,934.88
2017-12-15T01:49:00.383Z,934.88
2017-12-15T01:50:00.374Z,934.85
2017-12-15T01:51:00.386Z,934.85
2017-12-15T01:52:00.380Z,934.84
2017-12-15T01:53:00.375Z,934.82
2017-12-15T01:54:00.355Z,934.81
2017-12-15T01:55:00.350Z,934.76
2017-12-15T01:56:00.358Z,934.78
2017-12-15T01:57:00.342Z,934.79
2017-12-15T01:58:00.347Z,934.77
2017-12-15T01:59:00.323Z,934.79
2017-12-15T02:00:00.322Z,934.76
2017-12-15T02:01:00.327Z,934.76
2017-12-15T02:02:00.325Z,934.73
2017-12-15T02:03:00.305Z,934.72
2017-12-15T02:04:00.300Z,934.68
2017-12-15T02:05:00.310Z,934.69
2017-12-15T02:06:00.303Z,934.66
2017-12-15T02:07:00.298Z,934.67
2017-12-15T02:08:00.288Z,934.65
2017-12-15T02:09:00.283Z,934.63
2017-12-15T02:10:00.277Z,934.59
2017-12-15T02:11:00.256Z,934.59
2017-12-15T02:12:00.274Z,934.60
2017-12-15T02:13:00.264Z,934.59
2017-12-15T02:14:00.263Z,934.55
2017-12-15T02:15:00.248Z,934.55
2017-12-15T02:16:00.252Z,934.53
2017-12-15T02:17:00.243Z,934.50
2017-12-15T02:18:00.238Z,934.49
2017-12-15T02:19:00.235Z,934.47
2017-12-15T02:20:00.230Z,934.49
2017-12-15T02:21:00.220Z,934.47
2017-12-15T02:22:00.215Z,934.49
2017-12-15T02:23:00.209Z,934.48
2017-12-15T02:24:00.208Z,934.41
2017-12-15T02:25:00.199Z,934.45
2017-12-15T02:26:00.193Z,934.38
2017-12-15T02:27:00.183Z,934.38
2017-12-15T02:28:00.186Z,934.34
2017-12-15T02:29:00.176Z,934.25
2017-12-15T02:30:00.168Z,934.25
2017-12-15T02:31:00.169Z,934.23
2017-12-15T02:32:00.156Z,934.20
2017-12-15T02:33:00.158Z,934.16
2017-12-15T02:34:00.149Z,934.16
2017-12-15T02:35:00.147Z,934.13
2017-12-15T02:36:00.138Z,934.11
2017-12-15T02:37:00.135Z,934.08
2017-12-15T02:38:00.131Z,934.05
2017-12-15T02:39:00.126Z,934.03
2017-12-15T02:40:00.119Z,934.02
2017-12-15T02:41:00.106Z,934.01
2017-12-15T02:42:00.104Z,933.99
2017-12-15T02:43:00.103Z,934.00
2017-12-15T02:44:00.090Z,934.04
2017-12-15T02:45:00.088Z,933.99
2017-12-15T02:46:00.079Z,934.04
2017-12-15T02:47:00.077Z,934.04
2017-12-15T02:48:00.075Z,934.04
2017-12-15T02:49:00.062Z,934.03
2017-12-15T02:50:00.061Z,934.03
2017-12-15T02:51:00.054Z,934.05
2017-12-15T02:52:00.045Z,934.08
2017-12-15T02:53:00.044Z,934.06
2017-12-15T02:54:00.034Z,934.07
2017-12-15T02:55:00.031Z,934.03
2017-12-15T02:56:00.028Z,934.05
2017-12-15T02:57:00.021Z,934.04
2017-12-15T02:58:00.012Z,934.03
2017-12-15T02:59:00.009Z,933.99
2017-12-15T03:00:00.008Z,933.99
2017-12-15T03:00:59.999Z,933.98
2017-12-15T03:01:59.989Z,933.98
2017-12-15T03:02:59.991Z,933.95
2017-12-15T03:03:59.987Z,933.96
2017-12-15T03:04:59.976Z,933.93
2017-12-15T03:05:59.970Z,933.92
2017-12-15T03:06:59.960Z,933.90
2017-12-15T03:07:59.955Z,933.86
2017-12-15T03:08:59.958Z,933.86
2017-12-15T03:09:59.952Z,933.82
2017-12-15T03:10:59.942Z,933.82
2017-12-15T03:11:59.933Z,933.82
2017-12-15T03:12:59.927Z,933.79
2017-12-15T03:13:59.927Z,933.79
2017-12-15T03:14:59.924Z,933.75
2017-12-15T03:15:59.919Z,933.74
2017-12-15T03:16:59.905Z,933.71
2017-12-15T03:17:59.900Z,933.69
2017-12-15T03:18:59.898Z,933.66
2017-12-15T03:19:59.896Z,933.63
2017-12-15T03:20:59.883Z,933.63
2017-12-15T03:21:59.878Z,933.65
2017-12-15T03:22:59.875Z,933.64
2017-12-15T03:23:59.866Z,933.67
2017-12-15T03:24:59.861Z,933.65
2017-12-15T03:25:59.856Z,933.63
2017-12-15T03:26:59.850Z,933.62
2017-12-15T03:27:59.848Z,933.59
2017-12-15T03:28:59.847Z,933.55
2017-12-15T03:29:59.840Z,933.56
2017-12-15T03:30:59.839Z,933.50
2017-12-15T03:31:59.827Z,933.46
2017-12-15T03:32:59.822Z,933.46
2017-12-15T03:33:59.814Z,933.41
2017-12-15T03:34:59.812Z,933.36
2017-12-15T03:35:59.807Z,933.33
2017-12-15T03:36:59.797Z,933.32
2017-12-15T03:37:59.796Z,933.34
2017-12-15T03:38:59.793Z,933.31
2017-12-15T03:39:59.784Z,933.30
2017-12-15T03:40:59.771Z,933.33
2017-12-15T03:41:59.769Z,933.28
2017-12-15T03:42:59.763Z,933.27
2017-12-15T03:43:59.754Z,933.27
2017-12-15T03:44:59.751Z,933.24
2017-12-15T03:45:59.746Z,933.29
2017-12-15T03:46:59.740Z,933.30
2017-12-15T03:47:59.739Z,933.27
2017-12-15T03:48:59.725Z,933.25
2017-12-15T03:49:59.724Z,933.26
2017-12-15T03:50:59.717Z,933.24
2017-12-15T03:51:59.717Z,933.24
2017-12-15T03:52:59.702Z,933.21
2017-12-15T03:53:59.704Z,933.22
2017-12-15T03:54:59.699Z,933.21
2017-12-15T03:55:59.689Z,933.15
2017-12-15T03:56:59.669Z,933.13
2017-12-15T03:57:59.663Z,933.13
2017-12-15T03:58:59.676Z,933.12
2017-12-15T03:59:59.652Z,933.09
2017-12-15T04:00:59.665Z,933.05
2017-12-15T04:01:59.665Z,933.06
2017-12-15T04:02:59.653Z,933.01
2017-12-15T04:03:59.648Z,933.01
2017-12-15T04:04:59.643Z,933.07
2017-12-15T04:05:59.614Z,933.02
2017-12-15T04:06:59.631Z,933.01
2017-12-15T04:07:59.625Z,933.00
2017-12-15T04:08:59.601Z,932.99
2017-12-15T04:09:59.614Z,932.97
2017-12-15T04:10:59.607Z,932.95
2017-12-15T04:11:59.583Z,932.94
2017-12-15T04:12:59.577Z,932.92
2017-12-15T04:13:59.573Z,932.90
2017-12-15T04:14:59.566Z,932.90
2017-12-15T04:15:59.560Z,932.89
2017-12-15T04:16:59.574Z,932.86
2017-12-15T04:17:59.568Z,932.82
2017-12-15T04:18:59.543Z,932.80
2017-12-15T04:19:59.538Z,932.76
2017-12-15T04:20:59.547Z,932.73
2017-12-15T04:21:59.528Z,932.69
2017-12-15T04:22:59.523Z,932.71
2017-12-15T04:23:59.529Z,932.70
2017-12-15T04:24:59.510Z,932.68
2017-12-15T04:25:59.518Z,932.68
2017-12-15T04:26:59.512Z,932.69
2017-12-15T04:27:59.506Z,932.69
2017-12-15T04:28:59.486Z,932.68
2017-12-15T04:29:59.496Z,932.68
2017-12-15T04:30:59.488Z,932.67
2017-12-15T04:31:59.483Z,932.59
2017-12-15T04:32:59.478Z,932.58
2017-12-15T04:33:59.470Z,932.57
2017-12-15T04:34:59.465Z,932.56
2017-12-15T04:35:59.456Z,932.56
2017-12-15T04:36:59.450Z,932.56
2017-12-15T04:37:59.445Z,932.54
2017-12-15T04:38:59.447Z,932.48
2017-12-15T04:39:59.441Z,932.52
2017-12-15T04:40:59.432Z,932.46
2017-12-15T04:41:59.426Z,932.46
2017-12-15T04:42:59.415Z,932.44
2017-12-15T04:43:59.410Z,932.40
2017-12-15T04:44:59.404Z,932.44
2017-12-15T04:45:59.407Z,932.40
2017-12-15T04:46:59.396Z,932.41
2017-12-15T04:47:59.394Z,932.38
2017-12-15T04:48:59.390Z,932.43
2017-12-15T04:49:59.387Z,932.36
2017-12-15T04:50:59.377Z,932.37
2017-12-15T04:51:59.371Z,932.37
2017-12-15T04:52:59.362Z,932.35
2017-12-15T04:53:59.360Z,932.41
2017-12-15T04:54:59.349Z,932.41
2017-12-15T04:55:59.339Z,932.39
2017-12-15T04:56:59.338Z,932.38
2017-12-15T04:57:59.336Z,932.36
2017-12-15T04:58:59.330Z,932.38
2017-12-15T04:59:59.316Z,932.40
2017-12-15T05:00:59.315Z,932.37
2017-12-15T05:01:59.305Z,932.39
2017-12-15T05:02:59.303Z,932.35
2017-12-15T05:03:59.278Z,932.30
2017-12-15T05:04:59.376Z,932.28
2017-12-15T05:05:59.265Z,932.30
2017-12-15T05:06:59.283Z,932.23
2017-12-15T05:07:59.259Z,932.15
2017-12-15T05:08:59.273Z,932.12
2017-12-15T05:09:59.243Z,932.14
2017-12-15T05:10:59.237Z,932.09
2017-12-15T05:11:59.250Z,932.08
2017-12-15T05:12:59.244Z,932.05
2017-12-15T05:13:59.243Z,932.04
2017-12-15T05:14:59.232Z,932.04
2017-12-15T05:15:59.203Z,932.00
2017-12-15T05:16:59.237Z,931.96
2017-12-15T05:17:59.282Z,931.92
2017-12-15T05:18:59.190Z,931.90
2017-12-15T05:19:59.207Z,931.89
2017-12-15T05:20:59.173Z,931.87
2017-12-15T05:21:59.166Z,931.80
2017-12-15T05:22:59.185Z,931.79
2017-12-15T05:23:59.156Z,931.77
2017-12-15T05:24:59.167Z,931.81
2017-12-15T05:25:59.162Z,931.80
2017-12-15T05:26:59.138Z,931.77
2017-12-15T05:27:59.149Z,931.78
2017-12-15T05:28:59.144Z,931.75
2017-12-15T05:29:59.121Z,931.76
2017-12-15T05:30:59.138Z,931.74
2017-12-15T05:31:59.107Z,931.77
2017-12-15T05:32:59.127Z,931.76
2017-12-15T05:33:59.121Z,931.74
2017-12-15T05:34:59.096Z,931.74
2017-12-15T05:35:59.109Z,931.78
2017-12-15T05:36:59.084Z,931.76
2017-12-15T05:37:59.102Z,931.76
2017-12-15T05:38:59.091Z,931.72
2017-12-15T05:39:59.085Z,931.77
2017-12-15T05:40:59.185Z,931.76
2017-12-15T05:41:59.074Z,931.73
2017-12-15T05:42:59.061Z,931.73
2017-12-15T05:43:59.055Z,931.69
2017-12-15T05:44:59.056Z,931.68
2017-12-15T05:45:59.051Z,931.68
2017-12-15T05:46:59.038Z,931.65
2017-12-15T05:47:59.032Z,931.64
2017-12-15T05:48:59.037Z,931.62
2017-12-15T05:49:59.027Z,931.63
2017-12-15T05:50:59.025Z,931.61
2017-12-15T05:51:59.015Z,931.63
2017-12-15T05:52:59.013Z,931.63
2017-12-15T05:53:59.008Z,931.66
2017-12-15T05:54:59.001Z,931.64
2017-12-15T05:55:58.996Z,931.69
2017-12-15T05:56:58.980Z,931.68
2017-12-15T05:57:58.984Z,931.70
2017-12-15T05:58:58.973Z,931.73
2017-12-15T05:59:58.968Z,931.71
2017-12-15T06:00:58.962Z,931.72
2017-12-15T06:01:58.956Z,931.72
2017-12-15T06:02:58.954Z,931.71
2017-12-15T06:03:58.948Z,931.66
2017-12-15T06:04:59.033Z,931.70
2017-12-15T06:05:58.926Z,931.68
2017-12-15T06:06:58.926Z,931.74
2017-12-15T06:07:58.922Z,931.75
2017-12-15T06:08:58.914Z,931.76
2017-12-15T06:09:58.909Z,931.78
2017-12-15T06:10:58.902Z,931.76
2017-12-15T06:11:58.897Z,931.80
2017-12-15T06:12:58.890Z,931.81
2017-12-15T06:13:58.871Z,931.80
2017-12-15T06:14:58.883Z,931.78
2017-12-15T06:15:58.854Z,931.82
2017-12-15T06:16:58.849Z,931.85
2017-12-15T06:17:58.842Z,931.81
2017-12-15T06:18:58.836Z,931.85
2017-12-15T06:19:58.830Z,931.81
2017-12-15T06:20:58.824Z,931.84
2017-12-15T06:21:58.842Z,931.83
2017-12-15T06:22:58.825Z,931.79
2017-12-15T06:23:58.811Z,931.78
2017-12-15T06:24:58.814Z,931.75
2017-12-15T06:25:58.815Z,931.74
2017-12-15T06:26:58.789Z,931.73
2017-12-15T06:27:58.784Z,931.75
2017-12-15T06:28:58.777Z,931.73
2017-12-15T06:29:58.791Z,931.75
2017-12-15T06:30:58.765Z,931.77
2017-12-15T06:31:58.773Z,931.77
2017-12-15T06:32:58.754Z,931.75
2017-12-15T06:33:58.767Z,931.72
2017-12-15T06:34:58.761Z,931.68
2017-12-15T06:35:58.748Z,931.64
2017-12-15T06:36:58.753Z,931.68
2017-12-15T06:37:58.744Z,931.67
2017-12-15T06:38:58.739Z,931.68
2017-12-15T06:39:58.712Z,931.66
2017-12-15T06:40:58.710Z,931.62
2017-12-15T06:41:58.720Z,931.67
2017-12-15T06:42:58.714Z,931.67
2017-12-15T06:43:58.707Z,931.64
2017-12-15T06:44:58.678Z,931.64
2017-12-15T06:45:58.699Z,931.65
2017-12-15T06:46:58.684Z,931.64
2017-12-15T06:47:58.678Z,931.66
2017-12-15T06:48:58.678Z,931.66
2017-12-15T06:49:58.666Z,931.65
2017-12-15T06:50:58.668Z,931.70
2017-12-15T06:51:58.661Z,931.68
2017-12-15T06:52:58.658Z,931.70
2017-12-15T06:53:58.643Z,931.68
2017-12-15T06:54:58.643Z,931.72
2017-12-15T06:55:58.637Z,931.73
2017-12-15T06:56:58.631Z,931.73
2017-12-15T06:57:58.619Z,931.76
2017-12-15T06:58:58.613Z,931.72
2017-12-15T06:59:58.613Z,931.75
2017-12-15T07:00:58.608Z,931.79
2017-12-15T07:01:58.603Z,931.77
2017-12-15T07:02:58.597Z,931.78
2017-12-15T07:03:58.584Z,931.78
2017-12-15T07:04:58.684Z,931.76
2017-12-15T07:05:58.573Z,931.77
2017-12-15T07:06:58.572Z,931.78
2017-12-15T07:07:58.566Z,931.75
2017-12-15T07:08:58.554Z,931.80
2017-12-15T07:09:58.554Z,931.80
2017-12-15T07:10:58.548Z,931.79
2017-12-15T07:11:58.541Z,931.75
2017-12-15T07:12:58.536Z,931.79
2017-12-15T07:13:58.531Z,931.77
2017-12-15T07:14:58.526Z,931.79
2017-12-15T07:15:58.518Z,931.74
2017-12-15T07:16:58.512Z,931.76
2017-12-15T07:17:58.507Z,931.76
2017-12-15T07:18:58.493Z,931.77
2017-12-15T07:19:58.494Z,931.76
2017-12-15T07:20:58.482Z,931.83
2017-12-15T07:21:58.483Z,931.81
2017-12-15T07:22:58.577Z,931.81
2017-12-15T07:23:58.470Z,931.86
2017-12-15T07:24:58.464Z,931.83
2017-12-15T07:25:58.460Z,931.80
2017-12-15T07:26:58.451Z,931.80
2017-12-15T07:27:58.439Z,931.85
2017-12-15T07:28:58.434Z,931.82
2017-12-15T07:29:58.435Z,931.81
2017-12-15T07:30:58.428Z,931.88
2017-12-15T07:31:58.425Z,931.90
2017-12-15T07:32:58.417Z,931.91
2017-12-15T07:33:58.404Z,931.88
2017-12-15T07:34:58.405Z,931.90
2017-12-15T07:35:58.398Z,931.85
2017-12-15T07:36:58.392Z,931.82
2017-12-15T07:37:58.387Z,931.86
2017-12-15T07:38:58.380Z,931.87
2017-12-15T07:39:58.369Z,931.86
2017-12-15T07:40:58.368Z,931.93
2017-12-15T07:41:58.362Z,931.92
2017-12-15T07:42:58.356Z,931.91
2017-12-15T07:43:58.350Z,931.97
2017-12-15T07:44:58.344Z,931.95
2017-12-15T07:45:58.338Z,931.99
2017-12-15T07:46:58.332Z,931.97
2017-12-15T07:47:58.326Z,931.95
2017-12-15T07:48:58.325Z,931.98
2017-12-15T07:49:58.315Z,931.94
2017-12-15T07:50:58.308Z,931.91
2017-12-15T07:51:58.302Z,931.89
2017-12-15T07:52:58.296Z,931.93
2017-12-15T07:53:58.292Z,931.94
2017-12-15T07:54:58.283Z,931.94
2017-12-15T07:55:58.279Z,931.91
2017-12-15T07:56:58.271Z,931.91
2017-12-15T07:57:58.265Z,931.92
2017-12-15T07:58:58.259Z,931.93
2017-12-15T07:59:58.253Z,931.89
2017-12-15T08:00:58.252Z,931.85
2017-12-15T08:01:58.246Z,931.89
2017-12-15T08:02:58.235Z,931.90
2017-12-15T08:03:58.234Z,931.85
2017-12-15T08:04:58.224Z,931.87
2017-12-15T08:05:58.222Z,931.89
2017-12-15T08:06:58.211Z,931.89
2017-12-15T08:07:58.205Z,931.88
2017-12-15T08:08:58.204Z,931.93
2017-12-15T08:09:58.194Z,931.92
2017-12-15T08:10:58.187Z,931.91
2017-12-15T08:11:58.180Z,931.87
2017-12-15T08:12:58.175Z,931.88
2017-12-15T08:13:58.169Z,931.91
2017-12-15T08:14:58.162Z,931.87
2017-12-15T08:15:58.156Z,931.91
2017-12-15T08:16:58.156Z,931.94
2017-12-15T08:17:58.198Z,931.91
2017-12-15T08:18:58.141Z,931.92
2017-12-15T08:19:58.131Z,931.95
2017-12-15T08:20:58.130Z,931.95
2017-12-15T08:21:58.120Z,931.98
2017-12-15T08:22:58.113Z,931.99
2017-12-15T08:23:58.111Z,932.00
2017-12-15T08:24:58.105Z,931.98
2017-12-15T08:25:58.100Z,932.01
2017-12-15T08:26:58.089Z,932.07
2017-12-15T08:27:58.082Z,932.10
2017-12-15T08:28:58.181Z,932.07
2017-12-15T08:29:58.070Z,932.13
2017-12-15T08:30:58.071Z,932.14
2017-12-15T08:31:58.058Z,932.12
2017-12-15T08:32:58.046Z,932.17
2017-12-15T08:33:58.040Z,932.21
2017-12-15T08:34:58.043Z,932.21
2017-12-15T08:35:58.033Z,932.20
2017-12-15T08:36:58.008Z,932.22
2017-12-15T08:37:58.002Z,932.19
2017-12-15T08:38:57.999Z,932.27
2017-12-15T08:39:57.989Z,932.31
2017-12-15T08:40:58.090Z,932.28
2017-12-15T08:41:57.978Z,932.32
2017-12-15T08:42:57.984Z,932.33
2017-12-15T08:43:57.980Z,932.34
2017-12-15T08:44:57.959Z,932.37
2017-12-15T08:45:57.979Z,932.40
2017-12-15T08:46:57.942Z,932.39
2017-12-15T08:47:57.945Z,932.42
2017-12-15T08:48:57.947Z,932.43
2017-12-15T08:49:57.952Z,932.47
2017-12-15T08:50:57.926Z,932.48
2017-12-15T08:51:57.929Z,932.51
2017-12-15T08:52:57.911Z,932.56
2017-12-15T08:53:57.917Z,932.56
2017-12-15T08:54:57.898Z,932.59
2017-12-15T08:55:57.887Z,932.59
2017-12-15T08:56:57.900Z,932.64
2017-12-15T08:57:57.884Z,932.67
2017-12-15T08:58:57.887Z,932.71
2017-12-15T08:59:57.881Z,932.77
2017-12-15T09:00:57.886Z,932.82
2017-12-15T09:01:57.857Z,932.88
2017-12-15T09:02:57.873Z,932.89
2017-12-15T09:03:57.863Z,932.93
2017-12-15T09:04:57.832Z,932.95
2017-12-15T09:05:57.853Z,932.97
2017-12-15T09:06:57.841Z,933.02
2017-12-15T09:07:57.835Z,933.07
2017-12-15T09:08:57.830Z,933.09
2017-12-15T09:09:57.823Z,933.12
2017-12-15T09:10:57.817Z,933.15
2017-12-15T09:11:57.805Z,933.13
2017-12-15T09:12:57.799Z,933.15
2017-12-15T09:13:57.799Z,933.18
2017-12-15T09:14:57.798Z,933.18
2017-12-15T09:15:57.791Z,933.16
2017-12-15T09:16:57.880Z,933.19
2017-12-15T09:17:57.779Z,933.19
2017-12-15T09:18:57.765Z,933.21
2017-12-15T09:19:57.762Z,933.24
2017-12-15T09:20:57.752Z,933.23
2017-12-15T09:21:57.755Z,933.24
2017-12-15T09:22:57.744Z,933.25
2017-12-15T09:23:57.738Z,933.26
2017-12-15T09:24:57.739Z,933.25
2017-12-15T09:25:57.730Z,933.25
2017-12-15T09:26:57.719Z,933.25
2017-12-15T09:27:57.709Z,933.29
2017-12-15T09:28:57.703Z,933.31
2017-12-15T09:29:57.697Z,933.30
2017-12-15T09:30:57.746Z,933.29
2017-12-15T09:31:57.686Z,933.30
2017-12-15T09:32:57.680Z,933.31
2017-12-15T09:33:57.675Z,933.33
2017-12-15T09:34:57.668Z,933.32
2017-12-15T09:35:57.663Z,933.30
2017-12-15T09:36:57.657Z,933.29
2017-12-15T09:37:57.662Z,933.32
2017-12-15T09:38:57.645Z,933.30
2017-12-15T09:39:57.644Z,933.32
2017-12-15T09:40:57.634Z,933.29
2017-12-15T09:41:57.632Z,933.29
2017-12-15T09:42:57.626Z,933.30
2017-12-15T09:43:57.620Z,933.34
2017-12-15T09:44:57.618Z,933.37
2017-12-15T09:45:57.612Z,933.37
2017-12-15T09:46:57.606Z,933.36
2017-12-15T09:47:57.596Z,933.39
2017-12-15T09:48:57.591Z,933.36
2017-12-15T09:49:57.594Z,933.38
2017-12-15T09:50:57.580Z,933.40
2017-12-15T09:51:57.574Z,933.41
2017-12-15T09:52:57.569Z,933.42
2017-12-15T09:53:57.563Z,933.39
2017-12-15T09:54:57.571Z,933.41
2017-12-15T09:55:57.556Z,933.44
2017-12-15T09:56:57.556Z,933.46
2017-12-15T09:57:57.555Z,933.47
2017-12-15T09:58:57.545Z,933.46
2017-12-15T09:59:57.544Z,933.51
2017-12-15T10:00:57.541Z,933.50
2017-12-15T10:01:57.534Z,933.51
2017-12-15T10:02:57.528Z,933.53
2017-12-15T10:03:57.523Z,933.50
2017-12-15T10:04:57.514Z,933.56
2017-12-15T10:05:57.541Z,933.57
2017-12-15T10:06:57.508Z,933.55
2017-12-15T10:07:57.498Z,933.57
2017-12-15T10:08:57.493Z,933.59
2017-12-15T10:09:57.483Z,933.62
2017-12-15T10:10:57.487Z,933.65
2017-12-15T10:11:57.486Z,933.65
2017-12-15T10:12:57.477Z,933.67
2017-12-15T10:13:57.472Z,933.67
2017-12-15T10:14:57.447Z,933.68
2017-12-15T10:15:57.438Z,933.67
2017-12-15T10:16:57.437Z,933.68
2017-12-15T10:17:57.433Z,933.69
2017-12-15T10:18:57.427Z,933.65
2017-12-15T10:19:57.418Z,933.66
2017-12-15T10:20:57.407Z,933.71
2017-12-15T10:21:57.401Z,933.67
2017-12-15T10:22:57.403Z,933.65
2017-12-15T10:23:57.402Z,933.65
2017-12-15T10:24:57.397Z,933.65
2017-12-15T10:25:57.394Z,933.65
2017-12-15T10:26:57.387Z,933.67
2017-12-15T10:27:57.378Z,933.67
2017-12-15T10:28:57.377Z,933.65
2017-12-15T10:29:57.373Z,933.67
2017-12-15T10:30:57.376Z,933.69
2017-12-15T10:31:57.359Z,933.64
2017-12-15T10:32:57.359Z,933.61
2017-12-15T10:33:57.349Z,933.63
2017-12-15T10:34:57.348Z,933.57
2017-12-15T10:35:57.344Z,933.57
2017-12-15T10:36:57.339Z,933.60
2017-12-15T10:37:57.336Z,933.60
2017-12-15T10:38:57.329Z,933.54
2017-12-15T10:39:57.321Z,933.59
2017-12-15T10:40:57.320Z,933.56
2017-12-15T10:41:57.314Z,933.59
2017-12-15T10:42:57.310Z,933.59
2017-12-15T10:43:57.306Z,933.61
2017-12-15T10:44:57.298Z,933.65
2017-12-15T10:45:57.297Z,933.66
2017-12-15T10:46:57.288Z,933.68
2017-12-15T10:47:57.288Z,933.72
2017-12-15T10:48:57.287Z,933.70
2017-12-15T10:49:57.294Z,933.68
2017-12-15T10:50:57.293Z,933.68
2017-12-15T10:51:57.271Z,933.65
2017-12-15T10:52:57.265Z,933.64
2017-12-15T10:53:57.286Z,933.67
2017-12-15T10:54:57.256Z,933.65
2017-12-15T10:55:57.249Z,933.68
2017-12-15T10:56:57.250Z,933.71
2017-12-15T10:57:57.262Z,933.68
2017-12-15T10:58:57.260Z,933.69
2017-12-15T10:59:57.251Z,933.70
2017-12-15T11:00:57.258Z,933.71
2017-12-15T11:01:57.239Z,933.72
2017-12-15T11:02:57.242Z,933.64
2017-12-15T11:03:57.245Z,933.64
2017-12-15T11:04:57.235Z,933.61
2017-12-15T11:05:57.213Z,933.68
2017-12-15T11:06:57.229Z,933.66
2017-12-15T11:07:57.205Z,933.66
2017-12-15T11:08:57.192Z,933.66
2017-12-15T11:09:57.189Z,933.67
2017-12-15T11:10:57.184Z,933.72
2017-12-15T11:11:57.199Z,933.70
2017-12-15T11:12:57.198Z,933.70
2017-12-15T11:13:57.206Z,933.74
2017-12-15T11:14:57.169Z,933.75
2017-12-15T11:15:57.185Z,933.72
2017-12-15T11:16:57.173Z,933.78
2017-12-15T11:17:57.170Z,933.71
2017-12-15T11:18:57.166Z,933.71
2017-12-15T11:19:57.182Z,933.70
2017-12-15T11:20:57.163Z,933.74
2017-12-15T11:21:57.150Z,933.67
2017-12-15T11:22:57.176Z,933.73
2017-12-15T11:23:57.167Z,933.75
2017-12-15T11:24:57.172Z,933.76
2017-12-15T11:25:57.155Z,933.73
2017-12-15T11:26:57.162Z,933.71
2017-12-15T11:27:57.160Z,933.73
2017-12-15T11:28:57.163Z,933.68
2017-12-15T11:29:57.151Z,933.72
2017-12-15T11:30:57.149Z,933.70
2017-12-15T11:31:57.157Z,933.68
2017-12-15T11:32:57.138Z,933.68
2017-12-15T11:33:57.145Z,933.71
2017-12-15T11:34:57.142Z,933.70
2017-12-15T11:35:57.140Z,933.73
2017-12-15T11:36:57.138Z,933.71
2017-12-15T11:37:57.137Z,933.64
2017-12-15T11:38:57.134Z,933.75
2017-12-15T11:39:57.128Z,933.74
2017-12-15T11:40:57.130Z,933.72
2017-12-15T11:41:57.129Z,933.67
2017-12-15T11:42:57.128Z,933.63
2017-12-15T11:43:57.125Z,933.64
2017-12-15T11:44:57.123Z,933.69
2017-12-15T11:45:57.122Z,933.73
2017-12-15T11:46:57.119Z,933.72
2017-12-15T11:47:57.117Z,933.76
2017-12-15T11:48:57.116Z,933.72
2017-12-15T11:49:57.115Z,933.71
2017-12-15T11:50:57.112Z,933.65
2017-12-15T11:51:57.111Z,933.73
2017-12-15T11:52:57.110Z,933.76
2017-12-15T11:53:57.109Z,933.74
2017-12-15T11:54:57.109Z,933.73
2017-12-15T11:55:57.106Z,933.77
2017-12-15T11:56:57.105Z,933.77
2017-12-15T11:57:57.104Z,933.78
2017-12-15T11:58:57.104Z,933.70
2017-12-15T11:59:57.083Z,933.76
2017-12-15T12:00:57.092Z,933.77
2017-12-15T12:01:57.081Z,933.80
2017-12-15T12:02:57.080Z,933.76
2017-12-15T12:03:57.069Z,933.78
2017-12-15T12:04:57.079Z,933.83
2017-12-15T12:05:57.079Z,933.81
2017-12-15T12:06:57.096Z,933.88
2017-12-15T12:07:57.086Z,933.83
2017-12-15T12:08:57.077Z,933.81
2017-12-15T12:09:57.085Z,933.84
2017-12-15T12:10:57.091Z,933.81
2017-12-15T12:11:57.091Z,933.85
2017-12-15T12:12:57.092Z,933.85
2017-12-15T12:13:57.091Z,933.82
2017-12-15T12:14:57.090Z,933.87
2017-12-15T12:15:57.090Z,933.82
2017-12-15T12:16:57.094Z,933.82
2017-12-15T12:17:57.093Z,933.79
2017-12-15T12:18:57.090Z,933.77
2017-12-15T12:19:57.090Z,933.71
2017-12-15T12:20:57.092Z,933.75
2017-12-15T12:21:57.092Z,933.75
2017-12-15T12:22:57.091Z,933.72
2017-12-15T12:23:57.092Z,933.73
2017-12-15T12:24:57.093Z,933.69
2017-12-15T12:25:57.094Z,933.71
2017-12-15T12:26:57.093Z,933.68
2017-12-15T12:27:57.093Z,933.71